Time;durP1;ratioP1;P1;durP2;ratioP2;P2;SDS_P1;SDS_P2;PMS_P1;PMS_P2;Temp;Humidity;BMP_temperature;BMP_pressure;BME280_temperature;BME280_humidity;BME280_pressure;Samples;Min_cycle;Max_cycle;Signal;HPM_P1;HPM_P2
2021/08/20 03:17:20;;;;;;;;;;;;;;;16.42;76.26;99622.84;4954435;28;20431;-81
2021/08/20 03:19:46;;;;;;;;;;;;;;;16.56;73.65;99621.91;4967115;28;19926;-81
2021/08/20 03:22:11;;;;;;;;;;;;;;;16.61;76.59;99622.44;4949524;28;19919;-81
2021/08/20 03:24:36;;;;;;;;;;;;;;;16.67;79.15;99613.97;4949666;28;19922;-81
2021/08/20 03:27:02;;;;;;;;;;;;;;;16.43;75.63;99613.88;4948469;28;19925;-81
2021/08/20 03:29:27;;;;;;;;;;;;;;;16.41;75.39;99616.66;4949724;28;19977;-81
2021/08/20 03:31:52;;;;;;;;;;;;;;;16.44;75.56;99618.28;4965245;28;20389;-81
2021/08/20 03:34:17;;;;;;;;;;;;;;;16.50;74.89;99615.19;4949057;28;20289;-81
2021/08/20 03:36:42;;;;;;;;;;;;;;;16.77;76.98;99614.16;4967126;28;19918;-81
2021/08/20 03:39:08;;;;;;;;;;;;;;;16.67;77.74;99619.31;4949523;28;19969;-82
2021/08/20 03:41:33;;;;;;;;;;;;;;;16.60;77.52;99620.72;4966191;28;19954;-82
2021/08/20 03:43:58;;;;;;;;;;;;;;;16.71;76.60;99615.47;4949160;28;19930;-81
2021/08/20 03:46:23;;;;;;;;;;;;;;;16.92;76.83;99614.94;4965759;28;20403;-81
2021/08/20 03:48:49;;;;;;;;;;;;;;;17.15;78.17;99614.13;4962032;28;19926;-84
2021/08/20 03:51:15;;;;;;;;;;;;;;;16.82;75.71;99618.25;4947895;28;19929;-83
2021/08/20 03:53:40;;;;;;;;;;;;;;;16.62;76.03;99618.78;4949084;28;19919;-84
2021/08/20 03:56:05;;;;;;;;;;;;;;;16.86;77.63;99619.78;4946010;28;20513;-82
2021/08/20 03:58:31;;;;;;;;;;;;;;;16.65;77.50;99626.59;4949106;28;19918;-82
2021/08/20 04:00:56;;;;;;;;;;;;;;;16.67;76.11;99630.91;4947344;28;20361;-83
2021/08/20 04:03:22;;;;;;;;;;;;;;;16.75;77.73;99622.31;4948893;28;19969;-81
2021/08/20 04:05:47;;;;;;;;;;;;;;;17.75;82.17;99627.59;4949142;28;19922;-83
2021/08/20 04:08:13;;;;;;;;;;;;;;;17.68;77.71;99623.63;4945629;28;19973;-84
2021/08/20 04:10:39;;;;;;;;;;;;;;;17.29;78.85;99625.66;4949091;28;20285;-84
2021/08/20 04:13:04;;;;;;;;;;;;;;;17.18;76.65;99634.44;4964716;28;19918;-84
2021/08/20 04:15:29;;;;;;;;;;;;;;;17.01;79.02;99641.06;4947055;28;19925;-84
2021/08/20 04:17:54;;;;;;;;;;;;;;;16.69;79.24;99644.16;4945341;28;19927;-84
2021/08/20 04:20:20;;;;;;;;;;;;;;;16.56;81.54;99649.53;4948348;28;20416;-84
2021/08/20 04:22:45;;;;;;;;;;;;;;;16.52;83.74;99648.00;4948750;28;20360;-83
2021/08/20 04:25:10;;;;;;;;;;;;;;;16.34;81.68;99652.81;4945742;28;19918;-84
2021/08/20 04:27:35;;;;;;;;;;;;;;;16.57;85.04;99645.88;4948321;28;19922;-83
2021/08/20 04:30:01;;;;;;;;;;;;;;;16.59;80.80;99648.44;4947007;28;20354;-83
2021/08/20 04:32:26;;;;;;;;;;;;;;;16.33;77.53;99653.78;4948567;28;20285;-83
2021/08/20 04:34:51;;;;;;;;;;;;;;;16.34;82.28;99650.16;4965957;28;19993;-83
2021/08/20 04:37:19;;;;;;;;;;;;;;;16.20;83.37;99658.25;4965363;28;19925;-82
2021/08/20 04:39:45;;;;;;;;;;;;;;;16.27;84.49;99662.22;4964316;28;19926;-83
2021/08/20 04:42:10;;;;;;;;;;;;;;;16.30;82.09;99662.00;4948347;28;20487;-83
2021/08/20 04:44:35;;;;;;;;;;;;;;;16.12;84.15;99664.97;4947989;28;19918;-83
2021/08/20 04:47:00;;;;;;;;;;;;;;;16.31;84.14;99656.56;4963770;28;19965;-84
2021/08/20 04:49:26;;;;;;;;;;;;;;;16.24;83.66;99670.44;4948001;28;19919;-84
2021/08/20 07:27:17;;;;;;;;;;;;;;;15.70;82.67;99732.75;5002067;23;20025;-81
2021/08/20 07:29:42;;;;;;;;;;;;;;;15.67;81.84;99731.16;4962314;28;20001;-83
2021/08/20 07:32:07;;;;;;;;;;;;;;;15.85;84.24;99733.63;4982328;28;19949;-83
2021/08/20 07:34:33;;;;;;;;;;;;;;;15.82;79.79;99740.03;4965269;28;19925;-83
2021/08/20 07:36:58;;;;;;;;;;;;;;;15.91;83.89;99731.41;4964215;28;19964;-83
2021/08/20 07:39:26;;;;;;;;;;;;;;;15.78;81.98;99738.53;4964574;28;20399;-83
2021/08/20 07:41:51;;;;;;;;;;;;;;;16.05;80.60;99735.84;4964078;28;19989;-85
2021/08/20 07:44:17;;;;;;;;;;;;;;;16.07;85.55;99733.91;4982265;28;20377;-83
2021/08/20 07:46:42;;;;;;;;;;;;;;;16.08;83.50;99727.63;4964259;28;19928;-82
2021/08/20 07:49:07;;;;;;;;;;;;;;;15.95;83.01;99724.88;4964804;28;20407;-84
2021/08/20 07:51:33;;;;;;;;;;;;;;;15.89;80.70;99728.00;4962361;28;19926;-84
2021/08/20 07:53:58;;;;;;;;;;;;;;;16.23;86.52;99727.56;4968233;28;19918;-83
2021/08/20 07:56:25;;;;;;;;;;;;;;;16.29;82.18;99728.00;4967108;28;19926;-84
2021/08/20 07:58:50;;;;;;;;;;;;;;;16.27;84.07;99729.03;4968168;28;19960;-83
2021/08/20 08:01:16;;;;;;;;;;;;;;;15.77;82.11;99728.78;4967757;28;19972;-83
2021/08/20 08:03:41;;;;;;;;;;;;;;;16.38;83.49;99723.81;4986143;28;20344;-83
2021/08/20 08:06:06;;;;;;;;;;;;;;;15.88;83.05;99728.09;4967935;28;19918;-83
2021/08/20 08:08:32;;;;;;;;;;;;;;;15.82;79.37;99725.81;4985698;28;19933;-83
2021/08/20 08:10:58;;;;;;;;;;;;;;;15.79;79.69;99725.06;4966893;28;20059;-82
2021/08/20 08:13:23;;;;;;;;;;;;;;;15.98;78.21;99729.19;4963326;28;19926;-83
2021/08/20 08:15:48;;;;;;;;;;;;;;;15.69;80.79;99723.06;4967640;28;19922;-83
2021/08/20 08:18:14;;;;;;;;;;;;;;;15.85;79.96;99730.97;4983983;28;19924;-83
2021/08/20 08:20:39;;;;;;;;;;;;;;;15.95;80.71;99727.56;4985130;28;20494;-83
2021/08/20 08:23:04;;;;;;;;;;;;;;;16.12;85.19;99725.59;4966519;28;19918;-83
2021/08/20 08:25:30;;;;;;;;;;;;;;;16.02;83.39;99725.34;4983552;28;19918;-83
2021/08/20 08:27:57;;;;;;;;;;;;;;;15.97;81.13;99724.78;4962300;28;19922;-83
2021/08/20 08:30:23;;;;;;;;;;;;;;;16.37;81.98;99724.81;4983561;28;19945;-83
2021/08/20 08:32:48;;;;;;;;;;;;;;;16.47;84.93;99733.06;4967361;28;20466;-83
2021/08/20 08:35:14;;;;;;;;;;;;;;;16.32;81.29;99732.25;4967678;28;20006;-83
2021/08/20 08:37:39;;;;;;;;;;;;;;;15.65;67.03;99732.22;4984501;28;19918;-84
2021/08/20 08:40:05;;;;;;;;;;;;;;;16.21;87.93;99732.13;4966415;28;19925;-83
2021/08/20 08:42:30;;;;;;;;;;;;;;;16.49;87.42;99737.31;4967267;28;19922;-82
2021/08/20 08:44:56;;;;;;;;;;;;;;;16.24;85.50;99739.94;4966987;28;19969;-82
2021/08/20 08:47:21;;;;;;;;;;;;;;;16.20;88.20;99741.13;4966725;28;20306;-82
2021/08/20 08:49:48;;;;;;;;;;;;;;;16.23;84.67;99743.59;4967583;28;19918;-83
2021/08/20 08:52:13;;;;;;;;;;;;;;;15.98;83.94;99739.88;4967017;28;20341;-82
2021/08/20 08:54:39;;;;;;;;;;;;;;;16.33;82.91;99747.34;4984148;28;19922;-82
2021/08/20 08:57:04;;;;;;;;;;;;;;;15.90;81.50;99747.53;4983371;28;20377;-84
2021/08/20 08:59:29;;;;;;;;;;;;;;;16.23;87.50;99739.09;4967288;28;19937;-83
2021/08/20 09:01:55;;;;;;;;;;;;;;;16.05;84.40;99742.97;4982665;28;19922;-83
2021/08/20 09:04:23;;;;;;;;;;;;;;;16.28;87.92;99741.47;4966802;28;19922;-83
2021/08/20 09:06:50;;;;;;;;;;;;;;;16.32;85.46;99743.84;4966177;28;19918;-84
2021/08/20 09:09:17;;;;;;;;;;;;;;;16.47;85.83;99746.44;4960808;28;20365;-83
2021/08/20 09:11:43;;;;;;;;;;;;;;;16.06;80.48;99742.88;4965465;28;20259;-84
2021/08/20 09:14:09;;;;;;;;;;;;;;;16.27;84.90;99740.59;4965719;28;19925;-83
2021/08/20 09:16:38;;;;;;;;;;;;;;;16.34;81.05;99749.06;4966430;28;20008;-83
2021/08/20 09:19:08;;;;;;;;;;;;;;;16.18;81.17;99749.25;4966771;28;20277;-83
2021/08/20 09:21:33;;;;;;;;;;;;;;;16.50;85.29;99740.88;4966784;28;19950;-82
2021/08/20 09:23:58;;;;;;;;;;;;;;;16.24;83.92;99740.81;4967170;28;20012;-83
2021/08/20 09:26:24;;;;;;;;;;;;;;;16.37;84.81;99751.53;4965222;28;19969;-84
2021/08/20 09:28:49;;;;;;;;;;;;;;;16.14;74.39;99750.41;4983574;28;19934;-84
2021/08/20 09:31:14;;;;;;;;;;;;;;;16.42;81.82;99743.19;4967281;28;19928;-84
2021/08/20 09:33:42;;;;;;;;;;;;;;;16.30;82.13;99742.22;4966092;28;19929;-84
2021/08/20 09:36:12;;;;;;;;;;;;;;;16.17;77.67;99745.69;4966217;28;19919;-84
2021/08/20 09:38:39;;;;;;;;;;;;;;;16.32;77.74;99738.47;4966369;28;19922;-84
2021/08/20 09:41:11;;;;;;;;;;;;;;;16.34;83.56;99736.56;4965177;28;19925;-84
2021/08/20 09:43:37;;;;;;;;;;;;;;;16.31;79.45;99744.78;4983122;28;19964;-84
2021/08/20 09:46:13;;;;;;;;;;;;;;;16.83;83.41;99739.50;4966613;28;19934;-83
2021/08/20 09:48:50;;;;;;;;;;;;;;;16.62;82.67;99739.16;4977771;28;19919;-83
2021/08/20 09:51:30;;;;;;;;;;;;;;;16.61;85.51;99732.97;4981897;28;19953;-83
2021/08/20 09:53:57;;;;;;;;;;;;;;;16.40;80.25;99739.75;4965832;28;19922;-84
2021/08/20 09:56:23;;;;;;;;;;;;;;;16.58;84.36;99743.00;4964837;28;19981;-84
2021/08/20 09:58:48;;;;;;;;;;;;;;;16.85;84.37;99737.59;4983411;28;19918;-83
2021/08/20 10:01:14;;;;;;;;;;;;;;;16.70;83.93;99743.03;4978684;28;19922;-83
2021/08/20 10:03:39;;;;;;;;;;;;;;;16.29;80.70;99741.38;4983078;28;19917;-83
2021/08/20 10:06:04;;;;;;;;;;;;;;;16.82;82.47;99738.63;4983411;28;19922;-83
2021/08/20 10:08:32;;;;;;;;;;;;;;;16.69;83.93;99735.13;4965539;28;19918;-83
2021/08/20 10:10:58;;;;;;;;;;;;;;;16.73;81.11;99736.59;4964503;28;19961;-83
2021/08/20 10:13:25;;;;;;;;;;;;;;;16.33;81.14;99728.63;4959894;28;19956;-84
2021/08/20 10:15:50;;;;;;;;;;;;;;;16.56;84.11;99731.56;4965666;28;20381;-84
2021/08/20 10:18:15;;;;;;;;;;;;;;;16.71;82.15;99727.84;4965685;28;19958;-83
2021/08/20 10:20:41;;;;;;;;;;;;;;;16.50;78.64;99724.81;4981624;28;19918;-82
2021/08/20 10:23:09;;;;;;;;;;;;;;;16.42;80.42;99721.78;4965643;28;19918;-82
2021/08/20 10:25:35;;;;;;;;;;;;;;;16.57;82.91;99727.94;4979446;28;19925;-82
2021/08/20 10:28:01;;;;;;;;;;;;;;;16.44;79.77;99731.44;4982942;28;20377;-83
2021/08/20 10:30:27;;;;;;;;;;;;;;;16.46;78.65;99729.50;4965274;28;19926;-82
2021/08/20 10:33:00;;;;;;;;;;;;;;;16.42;81.78;99732.47;4966182;28;20273;-84
2021/08/20 10:35:44;;;;;;;;;;;;;;;16.81;82.69;99720.03;4964535;28;20527;-82
2021/08/20 10:38:45;;;;;;;;;;;;;;;16.66;80.75;99738.00;4965916;28;19922;-83
2021/08/20 10:41:11;;;;;;;;;;;;;;;16.48;78.55;99732.06;4912017;29;20456;-82
2021/08/20 10:43:51;;;;;;;;;;;;;;;16.70;82.07;99734.13;4950948;28;19927;-84
2021/08/20 10:46:34;;;;;;;;;;;;;;;16.76;81.04;99723.00;4980868;28;19957;-83
2021/08/20 10:49:12;;;;;;;;;;;;;;;16.81;81.84;99722.69;4981117;28;20491;-82
2021/08/20 10:51:49;;;;;;;;;;;;;;;16.52;81.55;99723.75;4980620;28;20045;-83
2021/08/20 10:54:24;;;;;;;;;;;;;;;16.80;83.01;99718.28;4964910;28;19918;-86
2021/08/20 10:56:49;;;;;;;;;;;;;;;16.81;79.73;99712.84;4963517;28;19941;-84
2021/08/20 10:59:33;;;;;;;;;;;;;;;16.58;67.01;99717.13;4964778;28;19918;-84
2021/08/20 11:02:18;;;;;;;;;;;;;;;16.28;81.97;99709.38;4965490;28;20337;-83
2021/08/20 11:05:01;;;;;;;;;;;;;;;16.27;77.67;99710.34;4965060;28;19926;-84
2021/08/20 11:07:39;;;;;;;;;;;;;;;16.82;82.95;99708.38;4964834;28;19934;-83
2021/08/20 11:10:07;;;;;;;;;;;;;;;16.35;76.14;99710.66;4979990;28;19922;-84
2021/08/20 11:12:38;;;;;;;;;;;;;;;16.40;78.31;99713.91;4982910;28;19919;-84
2021/08/20 11:15:27;;;;;;;;;;;;;;;16.55;76.70;99719.16;4981050;28;19918;-83
2021/08/20 11:17:53;;;;;;;;;;;;;;;16.71;78.92;99722.47;4956719;28;19954;-82
2021/08/20 11:20:19;;;;;;;;;;;;;;;16.73;78.35;99717.88;4982253;28;19921;-84
2021/08/20 11:22:44;;;;;;;;;;;;;;;16.79;83.51;99720.13;4965050;28;20316;-82
2021/08/20 11:25:15;;;;;;;;;;;;;;;16.47;75.75;99725.03;4964200;28;19929;-83
2021/08/20 11:27:53;;;;;;;;;;;;;;;16.71;79.84;99722.47;4968334;28;19930;-83
2021/08/20 11:30:18;;;;;;;;;;;;;;;16.61;82.06;99726.75;4968323;28;19918;-83
2021/08/20 11:32:43;;;;;;;;;;;;;;;16.93;82.22;99715.66;4968397;28;20403;-82
2021/08/20 11:35:09;;;;;;;;;;;;;;;16.85;78.66;99721.53;4968964;28;19953;-83
2021/08/20 11:37:34;;;;;;;;;;;;;;;16.62;79.53;99717.75;4984117;28;19918;-85
2021/08/20 11:40:06;;;;;;;;;;;;;;;16.79;81.09;99722.81;4967703;28;19918;-84
2021/08/20 11:42:31;;;;;;;;;;;;;;;16.67;79.25;99723.66;4984981;28;20369;-84
2021/08/20 11:44:56;;;;;;;;;;;;;;;16.40;76.47;99713.91;4968375;28;19929;-83
2021/08/20 11:47:22;;;;;;;;;;;;;;;16.67;83.27;99720.97;4981172;28;20273;-84
2021/08/20 11:49:47;;;;;;;;;;;;;;;16.71;78.81;99722.47;4968029;28;19985;-83
2021/08/20 11:52:12;;;;;;;;;;;;;;;16.48;76.69;99714.22;4962733;28;19922;-82
2021/08/20 11:54:38;;;;;;;;;;;;;;;16.98;78.97;99718.88;4968172;28;19921;-83
2021/08/20 11:57:04;;;;;;;;;;;;;;;16.85;78.40;99726.88;4984118;28;20329;-83
2021/08/20 11:59:29;;;;;;;;;;;;;;;17.02;81.66;99725.72;4967028;28;20013;-83
2021/08/20 12:01:55;;;;;;;;;;;;;;;16.57;79.36;99734.13;4966167;28;19953;-91
2021/08/20 12:04:24;;;;;;;;;;;;;;;16.77;81.70;99722.06;4962523;28;20279;-90
2021/08/20 12:06:50;;;;;;;;;;;;;;;17.18;79.94;99726.34;4964493;28;19922;-89
2021/08/20 12:09:19;;;;;;;;;;;;;;;16.73;82.20;99720.53;4964382;28;19922;-90
2021/08/20 12:11:49;;;;;;;;;;;;;;;17.13;77.60;99724.94;4958956;28;19925;-91
2021/08/20 12:14:20;;;;;;;;;;;;;;;16.57;77.92;99726.09;4972393;28;19921;-89
2021/08/20 12:16:47;;;;;;;;;;;;;;;16.92;79.74;99719.31;4970563;28;19919;-87
2021/08/20 12:19:18;;;;;;;;;;;;;;;16.80;80.82;99723.66;4968737;28;19922;-88
2021/08/20 12:21:46;;;;;;;;;;;;;;;17.14;82.76;99715.97;4984295;28;19945;-89
2021/08/20 12:24:12;;;;;;;;;;;;;;;17.40;81.89;99724.78;4968019;28;19973;-90
2021/08/20 12:26:38;;;;;;;;;;;;;;;17.31;81.03;99720.09;4968920;28;19926;-88
2021/08/20 12:29:13;;;;;;;;;;;;;;;16.93;75.98;99718.31;4969469;28;20386;-90
2021/08/20 12:31:39;;;;;;;;;;;;;;;16.73;83.91;99719.69;4974016;28;19918;-90
2021/08/20 12:34:05;;;;;;;;;;;;;;;16.33;81.55;99724.13;4966377;28;19918;-90
2021/08/20 12:36:30;;;;;;;;;;;;;;;16.91;79.54;99715.75;4968456;28;20329;-89
2021/08/20 12:39:08;;;;;;;;;;;;;;;16.85;69.27;99710.81;4972191;28;19922;-89
2021/08/20 12:41:40;;;;;;;;;;;;;;;16.96;80.10;99723.47;4964110;28;20033;-88
2021/08/20 12:44:09;;;;;;;;;;;;;;;16.76;80.19;99724.84;4969751;28;19933;-86
2021/08/20 12:46:35;;;;;;;;;;;;;;;16.62;81.50;99723.13;4975848;28;19925;-90
2021/08/20 12:49:01;;;;;;;;;;;;;;;17.07;76.89;99715.53;4972507;28;19918;-89
2021/08/20 12:51:27;;;;;;;;;;;;;;;16.85;77.52;99711.69;4967143;28;19921;-91
2021/08/20 12:54:01;;;;;;;;;;;;;;;16.55;79.09;99717.34;4975954;28;19941;-91
2021/08/20 12:56:40;;;;;;;;;;;;;;;16.82;83.73;99719.91;4968936;28;19928;-90
2021/08/20 12:59:06;;;;;;;;;;;;;;;17.01;82.38;99714.16;4968802;28;19918;-90
2021/08/20 13:01:33;;;;;;;;;;;;;;;16.78;81.87;99717.56;4984217;28;19918;-90
2021/08/20 13:04:00;;;;;;;;;;;;;;;16.91;79.74;99717.59;4967589;28;19926;-90
2021/08/20 13:06:26;;;;;;;;;;;;;;;16.46;75.18;99715.28;4966726;28;19924;-88
2021/08/20 13:08:51;;;;;;;;;;;;;;;16.59;76.87;99709.94;4967164;28;19918;-90
2021/08/20 13:11:17;;;;;;;;;;;;;;;17.02;82.06;99710.53;4961867;28;19929;-89
2021/08/20 13:13:42;;;;;;;;;;;;;;;17.02;81.25;99713.19;4969583;28;19924;-89
2021/08/20 13:16:08;;;;;;;;;;;;;;;16.39;74.34;99714.84;4967169;28;19945;-88
2021/08/20 13:18:34;;;;;;;;;;;;;;;16.72;83.64;99708.16;4967338;28;19929;-91
2021/08/20 13:21:01;;;;;;;;;;;;;;;17.22;80.09;99708.25;4967457;28;19917;-90
2021/08/20 13:23:26;;;;;;;;;;;;;;;17.21;77.72;99715.41;4966433;28;19922;-90
2021/08/20 13:25:52;;;;;;;;;;;;;;;16.60;77.65;99711.66;4967023;28;19925;-89
2021/08/20 13:28:17;;;;;;;;;;;;;;;16.61;82.81;99705.34;4967074;28;19941;-89
2021/08/20 13:30:43;;;;;;;;;;;;;;;16.98;81.68;99705.50;4968553;28;20350;-91
2021/08/20 13:33:09;;;;;;;;;;;;;;;16.46;74.97;99710.78;4966186;28;19922;-92
2021/08/20 13:35:34;;;;;;;;;;;;;;;16.78;81.46;99702.34;4967344;28;20009;-92
2021/08/20 13:37:59;;;;;;;;;;;;;;;16.44;77.00;99702.03;4966317;28;20376;-89
2021/08/20 13:40:28;;;;;;;;;;;;;;;16.44;75.21;99699.34;4965566;28;19918;-89
2021/08/20 13:42:54;;;;;;;;;;;;;;;16.59;78.66;99699.25;4966169;28;19957;-90
2021/08/20 13:45:19;;;;;;;;;;;;;;;16.58;78.54;99708.22;4967635;28;19926;-90
2021/08/20 13:47:44;;;;;;;;;;;;;;;17.00;81.38;99701.72;4966408;28;20373;-91
2021/08/20 13:50:10;;;;;;;;;;;;;;;16.60;76.20;99704.50;4966153;28;20453;-92
2021/08/20 13:52:35;;;;;;;;;;;;;;;16.65;82.39;99706.84;4966683;28;19929;-88
2021/08/20 13:55:01;;;;;;;;;;;;;;;16.79;79.59;99709.41;4965724;28;19921;-90
2021/08/20 13:57:26;;;;;;;;;;;;;;;16.62;81.51;99705.22;4983666;28;19922;-89
2021/08/20 13:59:52;;;;;;;;;;;;;;;17.07;82.49;99702.13;4967104;28;19928;-90
2021/08/20 14:02:17;;;;;;;;;;;;;;;16.58;75.74;99701.06;4967947;28;19918;-90
2021/08/20 14:04:42;;;;;;;;;;;;;;;16.96;80.37;99694.91;4966199;28;20381;-92
2021/08/20 14:07:08;;;;;;;;;;;;;;;16.81;80.74;99696.78;4967532;28;19922;-87
2021/08/20 14:09:35;;;;;;;;;;;;;;;16.60;75.86;99704.50;4966164;28;19918;-90
2021/08/20 14:12:00;;;;;;;;;;;;;;;16.61;80.28;99702.66;4961286;28;20000;-91
2021/08/20 14:14:26;;;;;;;;;;;;;;;16.53;76.45;99708.56;4967934;28;20000;-90
2021/08/20 14:16:51;;;;;;;;;;;;;;;17.05;82.80;99702.25;4965306;28;19928;-91
2021/08/20 14:19:16;;;;;;;;;;;;;;;16.77;78.04;99706.00;4970032;28;19922;-91
2021/08/20 14:21:42;;;;;;;;;;;;;;;16.73;79.13;99701.81;4983413;28;19925;-90
2021/08/20 14:24:07;;;;;;;;;;;;;;;16.92;78.99;99705.94;4965260;28;19953;-89
2021/08/20 14:26:32;;;;;;;;;;;;;;;16.82;80.51;99703.84;4964074;28;19922;-88
2021/08/20 14:28:58;;;;;;;;;;;;;;;16.77;78.13;99711.34;4961723;28;19945;-90
2021/08/20 14:31:23;;;;;;;;;;;;;;;17.04;82.25;99707.72;4966498;28;19922;-87
2021/08/20 14:33:48;;;;;;;;;;;;;;;16.83;76.11;99700.22;4962509;28;19922;-89
2021/08/20 14:36:13;;;;;;;;;;;;;;;16.93;79.72;99699.59;4968072;28;19976;-90
2021/08/20 14:38:39;;;;;;;;;;;;;;;16.74;78.13;99706.22;4962628;28;20376;-90
2021/08/20 14:41:04;;;;;;;;;;;;;;;16.84;78.83;99701.91;4966327;28;19930;-90
2021/08/20 14:43:31;;;;;;;;;;;;;;;16.80;79.09;99699.56;4980576;28;19923;-90
2021/08/20 14:45:57;;;;;;;;;;;;;;;16.60;76.27;99703.66;4964988;28;19936;-89
2021/08/20 14:48:22;;;;;;;;;;;;;;;17.02;77.37;99709.66;4964380;28;19918;-90
2021/08/20 14:50:47;;;;;;;;;;;;;;;16.88;76.59;99698.13;4965679;28;19918;-90
2021/08/20 14:53:12;;;;;;;;;;;;;;;16.90;76.13;99695.31;4968040;28;19918;-90
2021/08/20 14:55:38;;;;;;;;;;;;;;;16.73;77.58;99701.81;4981246;28;19918;-88
2021/08/20 14:58:03;;;;;;;;;;;;;;;17.06;77.94;99695.09;4968740;28;19917;-88
2021/08/20 15:00:28;;;;;;;;;;;;;;;16.93;75.27;99692.44;4983172;28;20373;-88
2021/08/20 15:02:54;;;;;;;;;;;;;;;17.03;78.67;99689.97;4968913;28;19929;-87
2021/08/20 15:05:19;;;;;;;;;;;;;;;16.66;74.94;99687.19;4972413;28;19926;-88
2021/08/20 15:07:46;;;;;;;;;;;;;;;16.92;78.46;99692.53;4986996;28;20456;-87
2021/08/20 15:10:11;;;;;;;;;;;;;;;16.88;76.89;99695.44;4966728;28;19918;-90
2021/08/20 15:15:08;;;;;;;;;;;;;;;16.86;74.85;99693.81;4990798;28;19929;-89
2021/08/20 15:17:34;;;;;;;;;;;;;;;16.75;77.54;99694.53;4979522;28;19918;-88
2021/08/20 15:19:59;;;;;;;;;;;;;;;16.92;77.03;99692.53;4985905;28;20492;-88
2021/08/20 15:22:24;;;;;;;;;;;;;;;16.92;76.46;99697.91;4969450;28;19918;-89
2021/08/20 15:24:49;;;;;;;;;;;;;;;16.87;76.40;99695.53;4970150;28;20344;-89
2021/08/20 15:27:15;;;;;;;;;;;;;;;16.99;77.13;99699.16;4968415;28;19928;-88
2021/08/20 15:29:40;;;;;;;;;;;;;;;17.00;75.61;99699.06;4969865;28;19922;-90
2021/08/20 15:32:08;;;;;;;;;;;;;;;16.77;74.60;99695.31;4971510;28;19922;-88
2021/08/20 15:34:34;;;;;;;;;;;;;;;17.02;72.53;99693.59;4969393;28;19918;-88
2021/08/20 15:36:59;;;;;;;;;;;;;;;16.91;74.38;99697.03;4968869;28;19941;-89
2021/08/20 15:39:30;;;;;;;;;;;;;;;16.93;76.43;99694.25;4969388;28;19973;-89
2021/08/20 15:41:55;;;;;;;;;;;;;;;16.96;80.25;99688.66;4967160;28;19921;-86
2021/08/20 15:44:21;;;;;;;;;;;;;;;17.16;78.08;99688.09;4971548;28;19951;-85
2021/08/20 15:46:46;;;;;;;;;;;;;;;17.06;75.33;99689.75;4961815;28;19975;-87
2021/08/20 15:49:11;;;;;;;;;;;;;;;16.71;76.16;99682.34;4969145;28;20360;-85
2021/08/20 15:51:37;;;;;;;;;;;;;;;16.74;76.03;99682.16;4966864;28;20025;-87
2021/08/20 15:54:02;;;;;;;;;;;;;;;16.98;78.00;99684.09;4968077;28;19928;-87
2021/08/20 15:56:27;;;;;;;;;;;;;;;17.06;80.86;99677.19;4968205;28;20382;-87
2021/08/20 15:58:53;;;;;;;;;;;;;;;17.34;77.74;99677.03;4968231;28;20375;-85
2021/08/20 16:01:18;;;;;;;;;;;;;;;17.00;79.97;99680.31;4982606;28;19926;-87
2021/08/20 16:03:43;;;;;;;;;;;;;;;16.91;78.04;99674.75;4968934;28;19918;-87
2021/08/20 16:06:09;;;;;;;;;;;;;;;17.04;77.42;99681.81;4967929;28;19966;-87
2021/08/20 16:08:35;;;;;;;;;;;;;;;16.85;75.22;99676.91;4968216;28;19976;-87
2021/08/20 16:11:00;;;;;;;;;;;;;;;17.06;77.79;99673.69;4965345;28;20032;-86
2021/08/20 16:13:26;;;;;;;;;;;;;;;17.03;74.51;99668.56;4971674;28;19974;-87
2021/08/20 16:15:51;;;;;;;;;;;;;;;17.05;78.04;99672.81;4984633;28;19930;-87
2021/08/20 16:18:16;;;;;;;;;;;;;;;16.95;74.28;99663.75;4969632;28;19921;-87
2021/08/20 16:20:43;;;;;;;;;;;;;;;16.93;74.04;99672.81;4982072;28;20008;-87
2021/08/20 16:23:08;;;;;;;;;;;;;;;16.93;75.43;99672.81;4984884;28;19922;-87
2021/08/20 16:25:33;;;;;;;;;;;;;;;17.01;77.62;99675.84;4963306;28;20013;-85
2021/08/20 16:27:59;;;;;;;;;;;;;;;17.04;74.01;99675.59;4967439;28;20016;-86
2021/08/20 16:30:24;;;;;;;;;;;;;;;17.14;74.45;99673.97;4965758;28;19933;-86
2021/08/20 16:32:54;;;;;;;;;;;;;;;17.17;76.28;99667.56;4983887;28;20028;-88
2021/08/20 16:35:19;;;;;;;;;;;;;;;16.88;74.06;99681.19;4967813;28;20270;-87
2021/08/20 16:37:45;;;;;;;;;;;;;;;17.17;76.32;99680.94;4985031;28;19929;-87
2021/08/20 16:40:10;;;;;;;;;;;;;;;17.23;75.56;99675.13;4967196;28;19922;-87
2021/08/20 16:42:36;;;;;;;;;;;;;;;17.31;76.24;99677.25;4966885;28;20377;-87
2021/08/20 16:45:01;;;;;;;;;;;;;;;17.10;72.30;99677.00;4967326;28;19918;-87
2021/08/20 16:47:26;;;;;;;;;;;;;;;17.19;73.87;99684.38;4966416;28;20357;-87
2021/08/20 16:49:52;;;;;;;;;;;;;;;17.23;75.02;99684.03;4965113;28;20363;-85
2021/08/20 16:52:17;;;;;;;;;;;;;;;17.19;72.80;99682.53;4967601;28;19918;-86
2021/08/20 16:54:43;;;;;;;;;;;;;;;17.10;75.16;99685.88;4967583;28;20293;-84
2021/08/20 16:57:08;;;;;;;;;;;;;;;17.18;74.30;99678.16;4980147;28;19972;-85
2021/08/20 16:59:34;;;;;;;;;;;;;;;17.05;74.38;99683.50;4964851;28;20273;-85
2021/08/20 17:01:59;;;;;;;;;;;;;;;17.02;76.86;99678.41;4965451;28;20373;-85
2021/08/20 17:04:24;;;;;;;;;;;;;;;17.39;77.36;99677.53;4982285;28;19930;-86
2021/08/20 17:06:49;;;;;;;;;;;;;;;17.11;72.38;99682.22;4962540;28;20028;-85
2021/08/20 17:09:16;;;;;;;;;;;;;;;17.25;74.19;99684.78;4965806;28;19937;-85
2021/08/20 17:11:41;;;;;;;;;;;;;;;17.07;72.47;99683.41;4980600;28;19918;-85
2021/08/20 17:14:06;;;;;;;;;;;;;;;16.90;73.13;99679.28;4966780;28;19980;-85
2021/08/20 17:16:31;;;;;;;;;;;;;;;17.10;72.30;99675.16;4967440;28;20482;-85
2021/08/20 17:18:57;;;;;;;;;;;;;;;17.08;72.30;99677.09;4966230;28;20020;-84
2021/08/20 17:21:22;;;;;;;;;;;;;;;16.92;72.08;99680.00;4967017;28;20293;-85
2021/08/20 17:23:48;;;;;;;;;;;;;;;17.18;74.51;99678.16;4966013;28;20366;-85
2021/08/20 17:26:13;;;;;;;;;;;;;;;17.28;73.84;99689.06;4979099;28;19922;-85
2021/08/20 17:28:39;;;;;;;;;;;;;;;17.09;73.06;99689.53;4964282;28;19992;-84
2021/08/20 17:31:04;;;;;;;;;;;;;;;16.95;71.13;99687.81;4966493;28;19922;-85
2021/08/20 17:33:30;;;;;;;;;;;;;;;17.13;73.39;99682.97;4964721;28;20045;-85
2021/08/20 17:35:56;;;;;;;;;;;;;;;17.11;75.21;99684.91;4979101;28;19929;-85
2021/08/20 17:38:21;;;;;;;;;;;;;;;17.10;74.29;99688.53;4978864;28;20274;-84
2021/08/20 17:40:46;;;;;;;;;;;;;;;17.35;75.14;99684.94;4962553;28;19926;-84
2021/08/20 17:43:12;;;;;;;;;;;;;;;17.18;74.54;99690.66;4962709;28;20362;-84
2021/08/20 17:45:37;;;;;;;;;;;;;;;16.85;72.34;99692.97;4963697;28;19922;-85
2021/08/20 17:48:02;;;;;;;;;;;;;;;16.89;73.43;99683.75;4965548;28;19973;-85
2021/08/20 17:50:27;;;;;;;;;;;;;;;17.19;74.17;99690.56;4982387;28;19932;-85
2021/08/20 17:52:56;;;;;;;;;;;;;;;17.05;73.70;99688.03;4965536;28;20281;-85
2021/08/20 17:55:22;;;;;;;;;;;;;;;16.93;72.39;99684.41;4972294;28;19973;-84
2021/08/20 17:57:47;;;;;;;;;;;;;;;16.92;72.72;99692.53;4964518;28;19922;-85
2021/08/20 18:00:12;;;;;;;;;;;;;;;17.00;71.32;99688.34;4964244;28;20296;-84
2021/08/20 18:02:38;;;;;;;;;;;;;;;16.91;72.73;99689.00;4968697;28;19941;-85
2021/08/20 18:05:03;;;;;;;;;;;;;;;16.79;73.25;99688.00;4966165;28;19918;-85
2021/08/20 18:07:29;;;;;;;;;;;;;;;16.91;73.79;99691.66;4964547;28;19930;-83
2021/08/20 18:09:54;;;;;;;;;;;;;;;16.84;73.12;99691.22;4965234;28;19922;-84
2021/08/20 18:12:20;;;;;;;;;;;;;;;17.01;74.37;99697.25;4981366;28;19957;-85
2021/08/20 18:14:46;;;;;;;;;;;;;;;16.97;73.27;99698.41;4974980;28;20397;-84
2021/08/20 18:17:11;;;;;;;;;;;;;;;16.91;75.21;99696.16;4965016;28;19921;-84
2021/08/20 18:19:37;;;;;;;;;;;;;;;16.86;72.78;99705.41;4979667;28;20362;-85
2021/08/20 18:22:03;;;;;;;;;;;;;;;16.88;73.69;99706.13;4962035;28;19925;-84
2021/08/20 18:24:28;;;;;;;;;;;;;;;16.82;73.68;99708.38;4964849;28;20008;-84
2021/08/20 18:26:54;;;;;;;;;;;;;;;16.88;73.45;99707.94;4966011;28;19929;-85
2021/08/20 18:29:22;;;;;;;;;;;;;;;16.87;72.95;99703.56;4964550;28;19922;-84
2021/08/20 18:31:52;;;;;;;;;;;;;;;16.89;72.84;99702.47;4980332;28;19922;-85
2021/08/20 18:34:18;;;;;;;;;;;;;;;16.87;72.59;99707.09;4982180;28;19981;-84
2021/08/20 18:36:44;;;;;;;;;;;;;;;16.79;74.48;99706.75;4962021;28;20357;-84
2021/08/20 18:39:09;;;;;;;;;;;;;;;16.89;75.43;99710.50;4982369;28;20325;-85